createdAt,value
2023-05-10T00:00:24.836Z,14.53
2023-05-10T00:03:14.514Z,14.56
2023-05-10T00:05:46.650Z,14.51
2023-05-10T00:08:18.642Z,14.49
2023-05-10T00:10:51.397Z,14.41
2023-05-10T00:13:24.019Z,14.40
2023-05-10T00:15:56.274Z,14.39
2023-05-10T00:18:28.629Z,14.36
2023-05-10T00:21:00.871Z,14.33
2023-05-10T00:23:33.179Z,14.29
2023-05-10T00:26:05.906Z,14.24
2023-05-10T00:28:38.504Z,14.12
2023-05-10T00:31:10.935Z,14.18
2023-05-10T00:33:43.202Z,14.20
2023-05-10T00:36:15.478Z,14.18
2023-05-10T00:38:47.722Z,14.16
2023-05-10T00:41:20.027Z,14.07
2023-05-10T00:43:52.545Z,14.06
2023-05-10T00:46:25.612Z,14.00
2023-05-10T00:48:58.177Z,13.92
2023-05-10T00:51:30.778Z,13.88
2023-05-10T00:54:03.174Z,13.90
2023-05-10T00:56:35.701Z,13.93
2023-05-10T00:59:08.218Z,13.90
2023-05-10T01:01:41.769Z,13.88
2023-05-10T01:04:14.905Z,13.86
2023-05-10T01:06:47.688Z,13.84
2023-05-10T01:09:20.157Z,13.81
2023-05-10T01:11:52.962Z,13.83
2023-05-10T01:14:25.383Z,13.85
2023-05-10T01:16:58.054Z,13.80
2023-05-10T01:19:32.219Z,13.79
2023-05-10T01:22:16.384Z,13.78
2023-05-10T01:25:21.691Z,13.66
2023-05-10T01:28:19.706Z,13.62
2023-05-10T01:31:12.825Z,13.63
2023-05-10T01:33:54.361Z,13.64
2023-05-10T01:36:33.310Z,13.53
2023-05-10T01:39:13.866Z,13.50
2023-05-10T01:41:53.354Z,13.50
2023-05-10T01:44:31.716Z,13.53
2023-05-10T01:47:09.728Z,13.44
2023-05-10T01:49:48.420Z,13.37
2023-05-10T01:52:29.046Z,13.42
2023-05-10T01:55:04.827Z,13.39
2023-05-10T01:57:40.542Z,13.35
2023-05-10T02:00:16.336Z,13.27
2023-05-10T02:02:51.257Z,13.37
2023-05-10T02:05:24.937Z,13.21
2023-05-10T02:07:58.737Z,13.28
2023-05-10T02:10:31.459Z,13.27
2023-05-10T02:13:05.301Z,13.23
2023-05-10T02:15:39.573Z,13.20
2023-05-10T02:18:13.838Z,13.19
2023-05-10T02:20:47.672Z,13.19
2023-05-10T02:23:22.319Z,13.17
2023-05-10T02:25:56.880Z,13.12
2023-05-10T02:28:31.475Z,13.11
2023-05-10T02:31:04.441Z,13.03
2023-05-10T02:33:37.810Z,13.03
2023-05-10T02:36:11.943Z,12.99
2023-05-10T02:38:45.713Z,12.97
2023-05-10T02:41:18.616Z,12.90
2023-05-10T02:43:51.427Z,12.98
2023-05-10T02:46:23.823Z,12.94
2023-05-10T02:48:56.308Z,12.94
2023-05-10T02:51:34.769Z,12.95
2023-05-10T02:54:13.144Z,12.87
2023-05-10T02:56:53.509Z,12.89
2023-05-10T02:59:26.385Z,12.82
2023-05-10T03:01:59.019Z,12.85
2023-05-10T03:04:31.812Z,12.81
2023-05-10T03:07:04.443Z,12.83
2023-05-10T03:09:37.113Z,12.79
2023-05-10T03:12:17.962Z,12.74
2023-05-10T03:15:03.026Z,12.72
2023-05-10T03:17:54.215Z,12.68
2023-05-10T03:20:32.502Z,12.68
2023-05-10T03:23:21.354Z,12.69
2023-05-10T03:25:54.531Z,12.71
2023-05-10T03:28:29.483Z,12.71
2023-05-10T03:31:03.203Z,12.72
2023-05-10T03:33:36.028Z,12.71
2023-05-10T03:36:09.364Z,12.65
2023-05-10T03:38:42.494Z,12.61
2023-05-10T03:41:15.129Z,12.63
2023-05-10T03:43:47.561Z,12.59
2023-05-10T03:46:20.026Z,12.51
2023-05-10T03:48:52.351Z,12.64
2023-05-10T03:51:26.416Z,12.64
2023-05-10T03:53:58.858Z,12.59
2023-05-10T03:56:31.556Z,12.57
2023-05-10T03:59:08.291Z,12.50
2023-05-10T04:01:40.714Z,12.60
2023-05-10T04:04:15.621Z,12.63
2023-05-10T04:06:48.242Z,12.64
2023-05-10T04:09:21.154Z,12.64
2023-05-10T04:11:53.630Z,12.65
2023-05-10T04:14:25.989Z,12.64
2023-05-10T04:16:58.514Z,12.67
2023-05-10T04:19:34.181Z,12.70
2023-05-10T04:22:08.192Z,12.67
2023-05-10T04:24:40.405Z,12.70
2023-05-10T04:27:12.862Z,12.72
2023-05-10T04:29:45.484Z,12.75
2023-05-10T04:32:18.393Z,12.74
2023-05-10T04:34:52.137Z,12.70
2023-05-10T04:37:25.117Z,12.79
2023-05-10T04:39:57.483Z,12.74
2023-05-10T04:42:29.862Z,12.81
2023-05-10T04:45:02.657Z,12.82
2023-05-10T04:47:35.468Z,12.82
2023-05-10T04:50:09.354Z,12.86
2023-05-10T04:52:41.390Z,12.91
2023-05-10T04:55:14.752Z,12.96
2023-05-10T04:57:47.488Z,12.99
2023-05-10T05:00:20.881Z,12.94
2023-05-10T05:02:53.136Z,12.85
2023-05-10T05:05:25.875Z,12.95
2023-05-10T05:07:58.566Z,13.08
2023-05-10T05:10:31.293Z,13.06
2023-05-10T05:13:03.558Z,13.10
2023-05-10T05:15:36.094Z,13.21
2023-05-10T05:18:08.767Z,13.14
2023-05-10T05:20:41.572Z,13.11
2023-05-10T05:23:14.197Z,13.14
2023-05-10T05:25:46.400Z,13.30
2023-05-10T05:28:18.949Z,13.35
2023-05-10T05:30:51.394Z,13.35
2023-05-10T05:33:24.080Z,13.39
2023-05-10T05:35:56.606Z,13.48
2023-05-10T05:38:30.303Z,13.58
2023-05-10T05:41:03.101Z,13.62
2023-05-10T05:43:38.056Z,13.57
2023-05-10T05:46:10.622Z,13.58
2023-05-10T05:48:43.012Z,13.66
2023-05-10T05:51:15.195Z,13.74
2023-05-10T05:53:47.682Z,13.87
2023-05-10T05:56:25.221Z,13.91
2023-05-10T05:58:57.446Z,13.95
2023-05-10T06:01:29.645Z,14.03
2023-05-10T06:04:01.811Z,14.15
2023-05-10T06:06:34.379Z,14.22
2023-05-10T06:09:07.086Z,14.27
2023-05-10T06:11:39.920Z,14.30
2023-05-10T06:14:12.218Z,14.32
2023-05-10T06:16:44.366Z,14.42
2023-05-10T06:19:16.502Z,14.51
2023-05-10T06:21:48.625Z,14.65
2023-05-10T06:24:21.032Z,14.77
2023-05-10T06:26:53.172Z,14.87
2023-05-10T06:29:25.317Z,14.88
2023-05-10T06:31:57.529Z,14.88
2023-05-10T06:34:29.855Z,14.91
2023-05-10T06:37:02.346Z,14.98
2023-05-10T06:39:34.802Z,15.14
2023-05-10T06:42:07.259Z,15.09
2023-05-10T06:44:39.617Z,15.04
2023-05-10T06:47:11.722Z,15.25
2023-05-10T06:49:43.922Z,15.32
2023-05-10T06:52:15.962Z,15.40
2023-05-10T06:54:47.953Z,15.56
2023-05-10T06:57:31.373Z,15.66
2023-05-10T07:00:06.261Z,15.76
2023-05-10T07:02:38.443Z,15.81
2023-05-10T07:05:11.843Z,15.83
2023-05-10T07:07:44.757Z,15.89
2023-05-10T07:10:17.286Z,16.01
2023-05-10T07:12:49.432Z,16.09
2023-05-10T07:15:22.215Z,15.89
2023-05-10T07:17:54.470Z,16.22
2023-05-10T07:20:26.833Z,16.32
2023-05-10T07:22:59.061Z,16.33
2023-05-10T07:25:31.418Z,16.52
2023-05-10T07:28:03.582Z,16.57
2023-05-10T07:30:35.950Z,16.56
2023-05-10T07:33:08.446Z,16.65
2023-05-10T07:35:41.314Z,16.76
2023-05-10T07:38:13.764Z,16.66
2023-05-10T07:40:46.336Z,16.83
2023-05-10T07:43:18.517Z,16.96
2023-05-10T07:45:51.115Z,16.99
2023-05-10T07:48:23.870Z,17.01
2023-05-10T07:50:56.004Z,17.25
2023-05-10T07:53:29.188Z,17.31
2023-05-10T07:56:21.910Z,17.45
2023-05-10T07:58:54.802Z,17.56
2023-05-10T08:01:27.395Z,17.62
2023-05-10T08:04:02.203Z,17.67
2023-05-10T08:06:33.152Z,17.60
2023-05-10T08:09:06.635Z,17.73
2023-05-10T08:11:39.599Z,17.87
2023-05-10T08:14:11.783Z,17.99
2023-05-10T08:16:44.104Z,18.01
2023-05-10T08:19:20.083Z,17.98
2023-05-10T08:21:52.369Z,17.96
2023-05-10T08:24:24.594Z,18.11
2023-05-10T08:26:57.060Z,18.19
2023-05-10T08:29:32.749Z,18.25
2023-05-10T08:32:08.173Z,18.33
2023-05-10T08:34:40.161Z,18.48
2023-05-10T08:37:14.569Z,18.51
2023-05-10T08:39:48.984Z,18.60
2023-05-10T08:42:24.829Z,18.81
2023-05-10T08:44:59.447Z,18.86
2023-05-10T08:47:31.935Z,18.90
2023-05-10T08:50:04.759Z,19.01
2023-05-10T08:52:42.505Z,19.08
2023-05-10T08:55:15.174Z,19.13
2023-05-10T08:57:47.601Z,19.15
2023-05-10T09:00:21.729Z,19.32
2023-05-10T09:02:54.719Z,19.41
2023-05-10T09:05:27.381Z,19.40
2023-05-10T09:07:59.898Z,19.52
2023-05-10T09:10:34.118Z,19.58
2023-05-10T09:13:07.142Z,19.65
2023-05-10T09:15:39.456Z,19.66
2023-05-10T09:18:11.867Z,19.84
2023-05-10T09:20:44.426Z,19.86
2023-05-10T09:23:16.658Z,19.87
2023-05-10T09:25:49.441Z,19.86
2023-05-10T09:28:21.451Z,20.08
2023-05-10T09:30:58.024Z,20.17
2023-05-10T09:33:30.225Z,20.23
2023-05-10T09:36:10.462Z,20.24
2023-05-10T09:38:50.851Z,20.29
2023-05-10T09:41:27.501Z,20.41
2023-05-10T09:44:00.324Z,20.48
2023-05-10T09:46:37.055Z,20.54
2023-05-10T09:49:09.356Z,20.59
2023-05-10T09:51:41.309Z,20.61
2023-05-10T09:54:15.848Z,20.71
2023-05-10T09:56:48.172Z,20.78
2023-05-10T09:59:20.506Z,20.79
2023-05-10T10:01:54.979Z,20.76
2023-05-10T10:04:27.788Z,20.85
2023-05-10T10:07:07.345Z,20.92
2023-05-10T10:09:40.727Z,21.01
2023-05-10T10:12:12.968Z,21.09
2023-05-10T10:14:45.562Z,21.08
2023-05-10T10:17:18.463Z,21.07
2023-05-10T10:19:52.282Z,21.29
2023-05-10T10:22:24.424Z,21.39
2023-05-10T10:24:57.760Z,21.45
2023-05-10T10:27:40.483Z,21.47
2023-05-10T10:30:22.803Z,21.46
2023-05-10T10:33:27.118Z,21.62
2023-05-10T10:36:03.659Z,21.61
2023-05-10T10:39:01.605Z,21.67
2023-05-10T10:41:36.771Z,21.76
2023-05-10T10:44:27.127Z,21.59
2023-05-10T10:47:09.712Z,21.64
2023-05-10T10:49:54.745Z,21.83
2023-05-10T10:52:30.276Z,21.85
2023-05-10T10:55:06.218Z,21.97
2023-05-10T10:57:48.133Z,21.98
2023-05-10T11:00:29.215Z,22.10
2023-05-10T11:03:07.653Z,22.17
2023-05-10T11:05:44.760Z,22.18
2023-05-10T11:08:19.822Z,22.30
2023-05-10T11:10:54.236Z,22.39
2023-05-10T11:13:33.695Z,22.48
2023-05-10T11:16:17.258Z,22.52
2023-05-10T11:19:03.839Z,22.59
2023-05-10T11:21:46.975Z,22.70
2023-05-10T11:24:20.215Z,22.87
2023-05-10T11:26:53.630Z,22.84
2023-05-10T11:29:27.296Z,22.91
2023-05-10T11:32:01.187Z,23.02
2023-05-10T11:34:34.791Z,22.98
2023-05-10T11:37:07.084Z,22.84
2023-05-10T11:39:39.492Z,22.95
2023-05-10T11:42:12.266Z,23.01
2023-05-10T11:44:46.784Z,23.17
2023-05-10T11:47:19.056Z,23.24
2023-05-10T11:49:53.786Z,23.32
2023-05-10T11:52:26.245Z,23.34
2023-05-10T11:54:59.702Z,23.32
2023-05-10T11:57:32.353Z,23.40
2023-05-10T12:00:04.924Z,23.52
2023-05-10T12:02:40.435Z,23.64
2023-05-10T12:05:13.799Z,23.75
2023-05-10T12:07:45.890Z,23.60
2023-05-10T12:10:19.217Z,23.46
2023-05-10T12:12:53.967Z,23.51
2023-05-10T12:15:28.588Z,23.62
2023-05-10T12:18:01.002Z,23.67
2023-05-10T12:20:33.810Z,23.47
2023-05-10T12:23:06.687Z,23.47
2023-05-10T12:25:41.045Z,23.42
2023-05-10T12:28:13.294Z,23.47
2023-05-10T12:30:46.587Z,23.57
2023-05-10T12:33:19.563Z,23.63
2023-05-10T12:35:53.465Z,23.67
2023-05-10T12:38:34.842Z,23.63
2023-05-10T12:41:08.976Z,23.53
2023-05-10T12:43:41.969Z,23.54
2023-05-10T12:46:15.773Z,23.73
2023-05-10T12:48:57.524Z,23.77
2023-05-10T12:51:36.049Z,23.95
2023-05-10T12:54:08.661Z,23.75
2023-05-10T12:56:41.941Z,23.87
2023-05-10T12:59:14.202Z,23.76
2023-05-10T13:01:46.498Z,23.73
2023-05-10T13:04:19.049Z,23.83
2023-05-10T13:06:51.400Z,23.83
2023-05-10T13:09:23.849Z,23.61
2023-05-10T13:11:56.422Z,23.56
2023-05-10T13:14:28.721Z,23.70
2023-05-10T13:17:00.948Z,23.78
2023-05-10T13:19:33.371Z,23.81
2023-05-10T13:22:05.843Z,23.86
2023-05-10T13:24:38.119Z,23.98
2023-05-10T13:27:10.323Z,24.04
2023-05-10T13:29:44.370Z,23.97
2023-05-10T13:32:15.584Z,23.94
2023-05-10T13:34:47.753Z,24.11
2023-05-10T13:37:20.364Z,24.11
2023-05-10T13:39:52.821Z,24.08
2023-05-10T13:42:25.703Z,24.20
2023-05-10T13:44:58.072Z,24.19
2023-05-10T13:47:30.298Z,24.30
2023-05-10T13:50:02.499Z,24.24
2023-05-10T13:52:35.334Z,24.28
2023-05-10T13:55:09.892Z,24.30
2023-05-10T13:57:43.841Z,24.32
2023-05-10T14:00:17.569Z,24.22
2023-05-10T14:02:49.914Z,24.13
2023-05-10T14:05:25.942Z,24.08
2023-05-10T14:07:58.438Z,23.97
2023-05-10T14:10:31.089Z,23.78
2023-05-10T14:13:04.314Z,23.75
2023-05-10T14:15:36.461Z,24.08
2023-05-10T14:18:08.800Z,24.06
2023-05-10T14:20:41.251Z,23.85
2023-05-10T14:23:13.853Z,23.75
2023-05-10T14:25:46.165Z,23.79
2023-05-10T14:28:18.775Z,23.70
2023-05-10T14:30:51.286Z,23.58
2023-05-10T14:33:23.467Z,23.51
2023-05-10T14:35:57.583Z,23.52
2023-05-10T14:38:29.750Z,23.61
2023-05-10T14:41:02.300Z,23.47
2023-05-10T14:43:34.685Z,23.44
2023-05-10T14:46:06.906Z,23.41
2023-05-10T14:48:39.057Z,23.52
2023-05-10T14:51:12.115Z,23.46
2023-05-10T14:53:44.601Z,23.34
2023-05-10T14:56:16.759Z,23.37
2023-05-10T14:58:49.046Z,23.04
2023-05-10T15:01:21.247Z,22.95
2023-05-10T15:03:54.275Z,22.96
2023-05-10T15:06:34.730Z,22.82
2023-05-10T15:09:07.216Z,22.69
2023-05-10T15:11:39.547Z,22.82
2023-05-10T15:14:11.810Z,22.85
2023-05-10T15:16:43.784Z,22.78
2023-05-10T15:19:16.218Z,22.81
2023-05-10T15:21:48.738Z,22.78
2023-05-10T15:24:21.207Z,22.55
2023-05-10T15:26:53.376Z,22.64
2023-05-10T15:29:25.712Z,22.73
2023-05-10T15:31:58.170Z,22.83
2023-05-10T15:34:32.247Z,22.68
2023-05-10T15:37:05.714Z,22.66
2023-05-10T15:39:37.956Z,22.70
2023-05-10T15:42:10.259Z,22.54
2023-05-10T15:44:42.439Z,22.28
2023-05-10T15:47:14.496Z,22.29
2023-05-10T15:49:46.702Z,22.32
2023-05-10T15:52:21.171Z,22.45
2023-05-10T15:54:53.742Z,22.50
2023-05-10T15:57:25.971Z,22.51
2023-05-10T15:59:58.329Z,22.59
2023-05-10T16:02:31.059Z,22.63
2023-05-10T16:05:03.685Z,22.54
2023-05-10T16:07:36.077Z,22.58
2023-05-10T16:10:10.983Z,22.48
2023-05-10T16:12:43.232Z,22.40
2023-05-10T16:15:16.044Z,22.50
2023-05-10T16:17:48.489Z,22.41
2023-05-10T16:20:21.638Z,22.45
2023-05-10T16:22:54.100Z,22.52
2023-05-10T16:25:26.666Z,22.52
2023-05-10T16:27:58.791Z,22.49
2023-05-10T16:30:30.938Z,22.66
2023-05-10T16:33:05.286Z,22.61
2023-05-10T16:35:37.470Z,22.58
2023-05-10T16:38:09.731Z,22.57
2023-05-10T16:40:41.852Z,22.47
2023-05-10T16:43:14.260Z,22.33
2023-05-10T16:45:46.543Z,22.19
2023-05-10T16:48:18.860Z,22.16
2023-05-10T16:50:51.042Z,22.17
2023-05-10T16:53:23.070Z,22.06
2023-05-10T16:55:55.554Z,22.00
2023-05-10T16:58:27.969Z,21.96
2023-05-10T17:01:00.463Z,21.89
2023-05-10T17:03:33.632Z,21.84
2023-05-10T17:06:08.294Z,21.86
2023-05-10T17:08:40.568Z,21.83
2023-05-10T17:11:15.168Z,21.67
2023-05-10T17:13:47.330Z,21.65
2023-05-10T17:16:20.997Z,21.70
2023-05-10T17:18:53.383Z,21.72
2023-05-10T17:21:25.657Z,21.77
2023-05-10T17:23:58.025Z,21.75
2023-05-10T17:26:30.766Z,21.97
2023-05-10T17:29:03.094Z,22.04
2023-05-10T17:31:35.570Z,22.17
2023-05-10T17:34:07.769Z,22.26
2023-05-10T17:36:40.060Z,22.30
2023-05-10T17:39:15.697Z,22.32
2023-05-10T17:41:47.822Z,22.34
2023-05-10T17:44:19.893Z,22.29
2023-05-10T17:46:52.907Z,22.24
2023-05-10T17:49:25.302Z,22.31
2023-05-10T17:51:57.303Z,22.37
2023-05-10T17:54:29.825Z,22.38
2023-05-10T17:57:03.708Z,22.21
2023-05-10T17:59:37.425Z,22.17
2023-05-10T18:02:09.849Z,22.16
2023-05-10T18:04:43.614Z,22.12
2023-05-10T18:07:17.159Z,21.93
2023-05-10T18:09:49.187Z,21.89
2023-05-10T18:12:21.732Z,21.78
2023-05-10T18:14:54.318Z,21.63
2023-05-10T18:17:26.715Z,21.47
2023-05-10T18:19:59.064Z,21.36
2023-05-10T18:22:32.327Z,21.23
2023-05-10T18:25:04.737Z,21.12
2023-05-10T18:27:38.794Z,21.01
2023-05-10T18:30:12.812Z,20.89
2023-05-10T18:32:45.032Z,20.79
2023-05-10T18:35:17.587Z,20.68
2023-05-10T18:37:49.831Z,20.57
2023-05-10T18:40:22.445Z,20.46
2023-05-10T18:42:54.566Z,20.28
2023-05-10T18:45:26.789Z,20.26
2023-05-10T18:47:59.195Z,20.15
2023-05-10T18:50:31.552Z,20.07
2023-05-10T18:53:04.445Z,19.91
2023-05-10T18:55:44.778Z,19.89
2023-05-10T18:58:17.414Z,19.81
2023-05-10T19:00:49.747Z,19.71
2023-05-10T19:03:22.609Z,19.65
2023-05-10T19:05:54.683Z,19.61
2023-05-10T19:08:26.993Z,19.59
2023-05-10T19:10:59.176Z,19.52
2023-05-10T19:13:31.297Z,19.50
2023-05-10T19:16:15.995Z,19.47
2023-05-10T19:18:48.974Z,19.45
2023-05-10T19:21:24.349Z,19.45
2023-05-10T19:23:58.956Z,19.39
2023-05-10T19:26:31.576Z,19.35
2023-05-10T19:29:04.136Z,19.35
2023-05-10T19:31:36.432Z,19.31
2023-05-10T19:34:08.836Z,19.20
2023-05-10T19:36:40.867Z,19.23
2023-05-10T19:39:13.329Z,19.26
2023-05-10T19:41:45.644Z,19.23
2023-05-10T19:44:19.013Z,19.13
2023-05-10T19:46:51.421Z,19.13
2023-05-10T19:49:23.723Z,19.17
2023-05-10T19:51:56.087Z,19.17
2023-05-10T19:54:28.461Z,19.14
2023-05-10T19:57:01.071Z,19.13
2023-05-10T19:59:33.543Z,19.10
2023-05-10T20:02:06.108Z,19.08
2023-05-10T20:04:38.256Z,19.04
2023-05-10T20:07:12.387Z,19.05
2023-05-10T20:09:44.877Z,19.04
2023-05-10T20:12:18.100Z,19.03
2023-05-10T20:14:50.532Z,19.00
2023-05-10T20:17:22.771Z,18.98
2023-05-10T20:19:55.224Z,18.96
2023-05-10T20:22:27.390Z,18.96
2023-05-10T20:24:59.783Z,18.89
2023-05-10T20:27:31.771Z,18.88
2023-05-10T20:30:05.066Z,18.85
2023-05-10T20:32:38.043Z,18.79
2023-05-10T20:35:11.407Z,18.81
2023-05-10T20:37:43.600Z,18.66
2023-05-10T20:40:16.358Z,18.68
2023-05-10T20:42:49.606Z,18.76
2023-05-10T20:45:22.456Z,18.75
2023-05-10T20:47:54.635Z,18.69
2023-05-10T20:50:26.902Z,18.54
2023-05-10T20:53:00.585Z,18.63
2023-05-10T20:55:32.810Z,18.62
2023-05-10T20:58:05.251Z,18.57
2023-05-10T21:00:37.904Z,18.53
2023-05-10T21:03:10.145Z,18.54
2023-05-10T21:05:42.840Z,18.46
2023-05-10T21:08:15.068Z,18.43
2023-05-10T21:10:47.539Z,18.42
2023-05-10T21:13:19.927Z,18.38
2023-05-10T21:15:52.316Z,18.33
2023-05-10T21:18:24.646Z,18.26
2023-05-10T21:20:56.920Z,18.22
2023-05-10T21:23:29.014Z,18.22
2023-05-10T21:26:03.265Z,18.18
2023-05-10T21:28:35.552Z,18.15
2023-05-10T21:31:08.535Z,18.17
2023-05-10T21:33:41.035Z,18.10
2023-05-10T21:36:13.307Z,18.00
2023-05-10T21:38:45.564Z,17.99
2023-05-10T21:41:17.990Z,17.94
2023-05-10T21:43:50.172Z,17.94
2023-05-10T21:46:22.407Z,17.93
2023-05-10T21:48:54.858Z,17.90
2023-05-10T21:51:27.191Z,17.87
2023-05-10T21:53:59.408Z,17.83
2023-05-10T21:56:31.773Z,17.77
2023-05-10T21:59:04.491Z,17.71
2023-05-10T22:01:37.248Z,17.68
2023-05-10T22:04:09.614Z,17.62
2023-05-10T22:06:41.801Z,17.59
2023-05-10T22:09:13.972Z,17.56
2023-05-10T22:11:45.988Z,17.52
2023-05-10T22:14:18.186Z,17.47
2023-05-10T22:16:50.552Z,17.44
2023-05-10T22:19:23.047Z,17.42
2023-05-10T22:21:55.550Z,17.29
2023-05-10T22:24:27.636Z,17.30
2023-05-10T22:27:00.162Z,17.26
2023-05-10T22:29:32.833Z,17.28
2023-05-10T22:32:06.515Z,17.28
2023-05-10T22:34:38.871Z,17.30
2023-05-10T22:37:11.933Z,17.19
2023-05-10T22:39:43.917Z,17.23
2023-05-10T22:42:16.340Z,17.21
2023-05-10T22:44:48.701Z,17.18
2023-05-10T22:47:21.087Z,17.16
2023-05-10T22:49:53.070Z,17.14
2023-05-10T22:52:25.321Z,17.08
2023-05-10T22:54:57.714Z,17.05
2023-05-10T22:57:30.060Z,16.98
2023-05-10T23:00:02.361Z,16.97
2023-05-10T23:02:35.533Z,16.94
2023-05-10T23:05:09.777Z,16.88
2023-05-10T23:07:42.074Z,16.82
2023-05-10T23:10:14.686Z,16.90
2023-05-10T23:12:47.074Z,16.78
2023-05-10T23:15:19.401Z,16.77
2023-05-10T23:17:51.900Z,16.76
2023-05-10T23:20:24.364Z,16.69
2023-05-10T23:22:56.819Z,16.65
2023-05-10T23:25:29.112Z,16.66
2023-05-10T23:28:01.357Z,16.62
2023-05-10T23:30:34.637Z,16.58
2023-05-10T23:33:08.512Z,16.51
2023-05-10T23:35:40.742Z,16.47
2023-05-10T23:38:12.910Z,16.47
2023-05-10T23:40:48.593Z,16.41
2023-05-10T23:43:21.808Z,16.37
2023-05-10T23:45:58.037Z,16.39
2023-05-10T23:48:30.278Z,16.33
2023-05-10T23:51:02.568Z,16.30
2023-05-10T23:53:34.806Z,16.26
2023-05-10T23:56:07.507Z,16.24
2023-05-10T23:58:39.638Z,16.21
